Time;durP1;ratioP1;P1;durP2;ratioP2;P2;SDS_P1;SDS_P2;PMS_P1;PMS_P2;Temp;Humidity;BMP_temperature;BMP_pressure;BME280_temperature;BME280_humidity;BME280_pressure;Samples;Min_cycle;Max_cycle;Signal;HPM_P1;HPM_P2
2023/04/22 00:03:25;;;;;;;5.03;4.40;;;;;;;;;;4993817;28;20231;-36
2023/04/22 00:06:03;;;;;;;5.70;5.10;;;;;;;;;;5008951;28;20208;-33
2023/04/22 00:14:46;;;;;;;6.10;5.47;;;;;;;;;;5013599;28;20219;-35
2023/04/22 00:17:39;;;;;;;5.73;5.10;;;;;;;;;;5011410;28;20271;-40
2023/04/22 00:20:20;;;;;;;5.33;4.43;;;;;;;;;;5003729;28;20204;-37
2023/04/22 00:26:17;;;;;;;6.07;5.23;;;;;;;;;;5003819;28;20211;-35
2023/04/22 00:28:54;;;;;;;5.77;4.63;;;;;;;;;;5015456;28;20233;-38
2023/04/22 00:37:06;;;;;;;5.93;5.30;;;;;;;;;;5013886;28;20211;-33
2023/04/22 00:43:25;;;;;;;7.60;4.33;;;;;;;;;;4966224;28;20216;-35
2023/04/22 00:49:44;;;;;;;5.53;4.90;;;;;;;;;;4983793;28;20211;-35
2023/04/22 00:55:36;;;;;;;5.90;5.30;;;;;;;;;;5012661;28;20258;-38
2023/04/22 01:07:41;;;;;;;6.10;4.70;;;;;;;;;;5013696;28;20269;-37
2023/04/22 01:19:20;;;;;;;5.27;4.77;;;;;;;;;;5007364;28;20579;-39
2023/04/22 01:25:04;;;;;;;7.80;4.97;;;;;;;;;;5011845;28;20294;-34
2023/04/22 01:27:42;;;;;;;6.40;5.60;;;;;;;;;;5009116;28;20203;-31
2023/04/22 01:30:24;;;;;;;6.20;4.87;;;;;;;;;;5011268;28;20210;-34
2023/04/22 01:33:22;;;;;;;5.73;5.10;;;;;;;;;;4993861;28;20246;-34
2023/04/22 01:39:02;;;;;;;5.40;4.30;;;;;;;;;;5015608;28;20225;-29
2023/04/22 01:41:57;;;;;;;6.77;4.93;;;;;;;;;;5031179;28;20264;-27
2023/04/22 01:44:46;;;;;;;6.03;4.87;;;;;;;;;;5040879;28;20233;-29
2023/04/22 01:47:24;;;;;;;9.33;4.80;;;;;;;;;;5038451;28;20206;-31
2023/04/22 01:50:03;;;;;;;5.77;4.80;;;;;;;;;;5054690;28;20216;-27
2023/04/22 02:03:38;;;;;;;5.13;4.47;;;;;;;;;;5058020;28;20226;-31
2023/04/22 02:09:11;;;;;;;7.00;5.00;;;;;;;;;;5031097;28;20268;-28
2023/04/22 02:12:00;;;;;;;5.47;4.90;;;;;;;;;;5048866;28;20264;-27
2023/04/22 02:17:36;;;;;;;5.30;4.80;;;;;;;;;;5038055;28;20218;-27
2023/04/22 02:20:34;;;;;;;5.73;5.20;;;;;;;;;;5045244;28;20206;-26
2023/04/22 02:23:19;;;;;;;6.17;4.97;;;;;;;;;;5046859;28;20234;-29
2023/04/22 02:26:08;;;;;;;5.43;4.93;;;;;;;;;;5053042;28;20194;-28
2023/04/22 02:31:37;;;;;;;5.00;4.50;;;;;;;;;;5044222;28;20194;-29
2023/04/22 02:34:11;;;;;;;6.13;4.83;;;;;;;;;;5031883;28;20225;-28
2023/04/22 03:06:17;;;;;;;5.47;4.37;;;;;;;;;;4965724;28;20208;-28
2023/04/22 03:09:03;;;;;;;6.20;4.53;;;;;;;;;;4957143;28;20210;-26
2023/04/22 03:14:49;;;;;;;5.10;4.60;;;;;;;;;;5039477;28;20218;-30
2023/04/22 03:17:33;;;;;;;;;;;;;;;;;;;;;
2023/04/22 03:20:18;;;;;;;4.60;4.20;;;;;;;;;;5050193;28;20202;-28
2023/04/22 03:22:59;;;;;;;4.90;4.43;;;;;;;;;;5053534;28;20212;-29
2023/04/22 03:25:41;;;;;;;5.23;4.60;;;;;;;;;;5036123;28;20198;-27
2023/04/22 03:28:25;;;;;;;5.73;4.57;;;;;;;;;;5044411;28;20212;-29
2023/04/22 03:34:07;;;;;;;4.87;4.47;;;;;;;;;;5049874;28;20300;-29
2023/04/22 03:47:06;;;;;;;6.00;4.97;;;;;;;;;;5053293;28;20308;-30
2023/04/22 03:55:26;;;;;;;5.47;4.97;;;;;;;;;;5023818;28;20206;-29
2023/04/22 03:58:14;;;;;;;5.33;4.67;;;;;;;;;;5023968;28;20206;-30
2023/04/22 04:03:11;;;;;;;7.33;5.07;;;;;;;;;;5059682;28;20252;-29
2023/04/22 04:05:38;;;;;;;4.80;4.23;;;;;;;;;;5034297;28;20221;-27
2023/04/22 04:08:05;;;;;;;4.10;3.70;;;;;;;;;;5033142;28;20202;-26
2023/04/22 04:10:32;;;;;;;5.60;4.83;;;;;;;;;;5032494;28;20256;-29
2023/04/22 04:12:59;;;;;;;7.23;4.27;;;;;;;;;;5049561;28;20218;-28
2023/04/22 04:15:27;;;;;;;4.03;3.67;;;;;;;;;;5037354;28;20199;-27
2023/04/22 04:17:55;;;;;;;4.10;3.70;;;;;;;;;;5042865;28;20194;-28
2023/04/22 04:20:24;;;;;;;4.97;4.00;;;;;;;;;;5045513;28;20277;-27
2023/04/22 04:22:51;;;;;;;4.87;4.10;;;;;;;;;;5033907;28;20198;-25
2023/04/22 04:25:20;;;;;;;6.30;4.00;;;;;;;;;;5034396;28;20227;-25
2023/04/22 04:27:47;;;;;;;4.03;3.63;;;;;;;;;;5037138;28;20198;-25
2023/04/22 04:30:15;;;;;;;4.77;4.30;;;;;;;;;;5033398;28;20198;-28
2023/04/22 04:32:44;;;;;;;6.30;3.57;;;;;;;;;;5031566;28;20205;-29
2023/04/22 04:35:12;;;;;;;4.53;4.13;;;;;;;;;;5051151;28;20190;-25
2023/04/22 04:37:42;;;;;;;4.77;4.10;;;;;;;;;;5033086;28;20206;-29
2023/04/22 04:40:11;;;;;;;5.30;3.97;;;;;;;;;;5030624;28;20206;-29
2023/04/22 04:42:38;;;;;;;4.00;3.60;;;;;;;;;;5043383;28;20213;-27
2023/04/22 04:45:06;;;;;;;4.13;3.83;;;;;;;;;;5041479;28;20210;-26
2023/04/22 04:47:33;;;;;;;5.37;3.80;;;;;;;;;;5033390;28;20199;-28
2023/04/22 04:50:03;;;;;;;4.70;3.70;;;;;;;;;;5032800;28;20202;-24
2023/04/22 04:52:31;;;;;;;4.77;3.80;;;;;;;;;;5049592;28;20225;-27
2023/04/22 04:54:59;;;;;;;4.23;3.83;;;;;;;;;;5051156;28;20214;-27
2023/04/22 04:57:26;;;;;;;4.80;3.67;;;;;;;;;;5034290;28;20195;-26
2023/04/22 04:59:53;;;;;;;4.97;3.50;;;;;;;;;;5040870;28;20278;-29
2023/04/22 05:02:20;;;;;;;3.63;3.27;;;;;;;;;;5031566;28;20235;-25
2023/04/22 05:04:48;;;;;;;4.57;4.13;;;;;;;;;;5044223;28;20230;-27
2023/04/22 05:07:15;;;;;;;4.93;3.70;;;;;;;;;;5053108;28;20276;-27
2023/04/22 05:09:42;;;;;;;4.60;4.10;;;;;;;;;;5050902;28;20204;-28
2023/04/22 05:12:10;;;;;;;5.40;4.30;;;;;;;;;;5044518;28;20260;-25
2023/04/22 05:14:37;;;;;;;5.37;4.67;;;;;;;;;;5041264;28;20221;-25
2023/04/22 05:17:05;;;;;;;5.00;4.23;;;;;;;;;;5045298;28;20201;-27
2023/04/22 05:19:32;;;;;;;4.20;3.80;;;;;;;;;;5042116;28;20200;-26
2023/04/22 05:21:59;;;;;;;6.13;4.60;;;;;;;;;;5032575;28;20205;-26
2023/04/22 05:24:26;;;;;;;4.80;4.33;;;;;;;;;;5033092;28;20233;-28
2023/04/22 05:26:53;;;;;;;4.53;4.13;;;;;;;;;;5037663;28;20228;-27
2023/04/22 05:29:22;;;;;;;4.70;4.30;;;;;;;;;;5036148;28;20371;-27
2023/04/22 05:31:49;;;;;;;4.57;4.17;;;;;;;;;;5039456;28;20194;-23
2023/04/22 05:34:16;;;;;;;8.50;4.67;;;;;;;;;;5042476;28;20217;-26
2023/04/22 05:36:43;;;;;;;5.17;4.50;;;;;;;;;;5030886;28;20212;-25
2023/04/22 05:39:11;;;;;;;6.70;4.50;;;;;;;;;;5045233;28;20290;-28
2023/04/22 05:41:45;;;;;;;5.87;5.00;;;;;;;;;;5040914;28;20269;-27
2023/04/22 05:44:16;;;;;;;4.17;3.77;;;;;;;;;;5035649;28;20227;-27
2023/04/22 05:46:46;;;;;;;4.47;4.00;;;;;;;;;;5037562;28;20204;-28
2023/04/22 05:49:13;;;;;;;4.77;3.90;;;;;;;;;;5040112;28;20202;-28
2023/04/22 05:51:40;;;;;;;4.00;3.53;;;;;;;;;;5047495;28;20201;-24
2023/04/22 05:54:07;;;;;;;4.80;4.30;;;;;;;;;;5043202;28;20209;-26
2023/04/22 05:56:34;;;;;;;6.13;4.47;;;;;;;;;;5036289;28;20198;-26
2023/04/22 05:59:01;;;;;;;6.93;4.23;;;;;;;;;;5061196;28;20205;-28
2023/04/22 06:01:29;;;;;;;6.57;4.40;;;;;;;;;;5035697;28;20364;-29
2023/04/22 06:03:57;;;;;;;4.83;3.97;;;;;;;;;;5042814;28;20318;-25
2023/04/22 06:06:24;;;;;;;4.40;4.00;;;;;;;;;;5048320;28;20204;-24
2023/04/22 06:08:52;;;;;;;4.53;4.13;;;;;;;;;;5044547;28;20281;-26
2023/04/22 06:11:19;;;;;;;6.43;4.17;;;;;;;;;;5048511;28;20202;-25
2023/04/22 06:13:46;;;;;;;6.60;4.67;;;;;;;;;;5043833;28;20225;-27
2023/04/22 06:16:13;;;;;;;4.70;4.17;;;;;;;;;;5050882;28;20289;-29
2023/04/22 06:18:42;;;;;;;5.03;4.17;;;;;;;;;;5040470;28;20203;-24
2023/04/22 06:21:10;;;;;;;5.93;4.53;;;;;;;;;;5045682;28;20200;-28
2023/04/22 06:23:37;;;;;;;5.80;4.43;;;;;;;;;;5053189;28;20232;-26
2023/04/22 06:26:05;;;;;;;5.30;4.77;;;;;;;;;;5056574;28;20234;-28
2023/04/22 06:28:32;;;;;;;5.10;4.67;;;;;;;;;;5037427;28;20202;-27
2023/04/22 06:30:59;;;;;;;7.10;4.50;;;;;;;;;;5048431;28;20214;-26
2023/04/22 06:33:26;;;;;;;4.97;4.47;;;;;;;;;;5038864;28;20230;-26
2023/04/22 06:35:53;;;;;;;5.30;4.80;;;;;;;;;;5044820;28;20201;-26
2023/04/22 06:38:22;;;;;;;6.93;4.33;;;;;;;;;;5035498;28;20210;-25
2023/04/22 06:40:55;;;;;;;4.77;4.37;;;;;;;;;;5052896;28;20203;-26
2023/04/22 06:43:22;;;;;;;5.47;4.57;;;;;;;;;;5035764;28;20217;-27
2023/04/22 06:45:49;;;;;;;5.30;4.10;;;;;;;;;;5034045;28;20279;-28
2023/04/22 06:48:16;;;;;;;7.50;4.43;;;;;;;;;;5046267;28;20209;-30
2023/04/22 06:50:43;;;;;;;5.03;4.03;;;;;;;;;;5035356;28;20203;-26
2023/04/22 06:53:10;;;;;;;4.53;4.13;;;;;;;;;;5035210;28;20226;-27
2023/04/22 06:55:39;;;;;;;5.83;3.77;;;;;;;;;;5038529;28;20202;-29
2023/04/22 06:58:06;;;;;;;5.37;3.77;;;;;;;;;;5044838;28;20227;-28
2023/04/22 07:00:33;;;;;;;4.33;3.90;;;;;;;;;;5044389;28;20444;-27
2023/04/22 07:03:00;;;;;;;6.27;3.50;;;;;;;;;;5050367;28;20221;-30
2023/04/22 07:05:28;;;;;;;4.37;3.83;;;;;;;;;;5052119;28;20222;-29
2023/04/22 07:07:55;;;;;;;5.40;3.90;;;;;;;;;;5053954;28;20213;-26
2023/04/22 07:10:22;;;;;;;4.10;3.70;;;;;;;;;;5043323;28;20211;-27
2023/04/22 07:12:50;;;;;;;3.67;3.37;;;;;;;;;;5035574;28;20209;-28
2023/04/22 07:15:18;;;;;;;4.40;3.77;;;;;;;;;;5053647;28;20227;-26
2023/04/22 07:17:45;;;;;;;7.63;3.80;;;;;;;;;;5042885;28;20229;-27
2023/04/22 07:20:12;;;;;;;5.77;3.80;;;;;;;;;;5033747;28;20209;-28
2023/04/22 07:22:39;;;;;;;3.83;3.43;;;;;;;;;;5034032;28;20200;-27
2023/04/22 07:25:07;;;;;;;5.63;3.43;;;;;;;;;;5034449;28;20219;-25
2023/04/22 07:27:35;;;;;;;5.63;3.33;;;;;;;;;;5047097;28;20210;-29
2023/04/22 07:30:04;;;;;;;3.73;3.23;;;;;;;;;;5034105;28;20200;-28
2023/04/22 07:32:31;;;;;;;5.27;3.63;;;;;;;;;;5036227;28;20672;-28
2023/04/22 07:34:58;;;;;;;3.97;3.57;;;;;;;;;;5053681;28;20242;-31
2023/04/22 07:37:26;;;;;;;4.50;3.50;;;;;;;;;;5046775;28;20224;-30
2023/04/22 07:39:53;;;;;;;4.07;3.70;;;;;;;;;;5034461;28;20225;-28
2023/04/22 07:42:20;;;;;;;4.00;3.60;;;;;;;;;;5041833;28;20262;-29
2023/04/22 07:44:47;;;;;;;3.57;3.27;;;;;;;;;;5042588;28;20232;-29
2023/04/22 07:47:16;;;;;;;3.97;3.10;;;;;;;;;;5043392;28;20203;-27
2023/04/22 07:49:48;;;;;;;4.97;3.20;;;;;;;;;;5039032;28;20202;-27
2023/04/22 07:52:15;;;;;;;3.87;3.00;;;;;;;;;;5040163;28;20290;-26
2023/04/22 07:54:42;;;;;;;3.33;2.83;;;;;;;;;;5042392;28;20284;-27
2023/04/22 07:57:09;;;;;;;3.93;2.90;;;;;;;;;;5039135;28;20254;-30
2023/04/22 07:59:38;;;;;;;3.17;2.90;;;;;;;;;;5043322;28;20236;-28
2023/04/22 08:02:06;;;;;;;6.60;3.40;;;;;;;;;;5043231;28;20244;-29
2023/04/22 08:04:37;;;;;;;4.33;2.93;;;;;;;;;;5047422;28;20227;-25
2023/04/22 08:07:05;;;;;;;3.70;3.13;;;;;;;;;;5034808;28;20197;-29
2023/04/22 08:09:32;;;;;;;3.77;3.13;;;;;;;;;;5048385;28;20286;-27
2023/04/22 08:12:00;;;;;;;3.33;2.80;;;;;;;;;;5042231;28;20203;-28
2023/04/22 08:14:27;;;;;;;4.67;3.40;;;;;;;;;;5048449;28;20227;-29
2023/04/22 08:16:54;;;;;;;5.17;2.80;;;;;;;;;;5037112;28;20202;-27
2023/04/22 08:19:22;;;;;;;3.27;2.70;;;;;;;;;;5041898;28;20194;-28
2023/04/22 08:21:50;;;;;;;3.40;3.10;;;;;;;;;;5044535;28;20341;-27
2023/04/22 08:24:19;;;;;;;3.03;2.73;;;;;;;;;;5035360;28;20215;-29
2023/04/22 08:26:46;;;;;;;2.80;2.60;;;;;;;;;;5034798;28;20223;-28
2023/04/22 08:29:14;;;;;;;3.10;2.70;;;;;;;;;;5032585;28;20269;-29
2023/04/22 08:31:42;;;;;;;5.73;2.37;;;;;;;;;;5037580;28;20289;-28
2023/04/22 08:34:10;;;;;;;2.50;2.30;;;;;;;;;;5038296;28;20223;-29
2023/04/22 08:36:37;;;;;;;2.33;2.13;;;;;;;;;;5040441;28;20220;-28
2023/04/22 08:39:05;;;;;;;2.67;1.93;;;;;;;;;;5047730;28;20259;-26
2023/04/22 08:41:38;;;;;;;3.23;1.77;;;;;;;;;;5041926;28;20206;-27
2023/04/22 08:44:08;;;;;;;2.40;1.50;;;;;;;;;;5038538;28;20308;-30
2023/04/22 08:46:45;;;;;;;1.80;1.70;;;;;;;;;;5036464;28;20232;-29
2023/04/22 08:49:14;;;;;;;2.20;2.10;;;;;;;;;;5038674;28;20289;-29
2023/04/22 08:51:42;;;;;;;1.90;1.70;;;;;;;;;;5030496;28;20293;-29
2023/04/22 08:54:10;;;;;;;2.13;1.93;;;;;;;;;;5039875;28;20711;-28
2023/04/22 08:56:40;;;;;;;2.10;2.00;;;;;;;;;;5046512;28;20201;-27
2023/04/22 08:59:07;;;;;;;2.10;1.70;;;;;;;;;;5042931;28;20210;-28
2023/04/22 09:01:34;;;;;;;2.80;1.80;;;;;;;;;;5033344;28;20314;-27
2023/04/22 09:04:02;;;;;;;1.73;1.60;;;;;;;;;;5032863;28;20218;-28
2023/04/22 09:06:31;;;;;;;2.30;2.10;;;;;;;;;;5031589;28;20206;-27
2023/04/22 09:08:58;;;;;;;1.67;1.57;;;;;;;;;;5043919;28;20203;-32
2023/04/22 09:11:27;;;;;;;1.77;1.60;;;;;;;;;;5045028;28;20204;-28
2023/04/22 09:13:56;;;;;;;2.33;1.80;;;;;;;;;;5042195;28;20278;-30
2023/04/22 09:16:23;;;;;;;1.60;1.50;;;;;;;;;;5030042;28;20293;-27
2023/04/22 09:18:51;;;;;;;2.33;1.57;;;;;;;;;;5039789;28;20263;-28
2023/04/22 09:21:18;;;;;;;3.20;1.50;;;;;;;;;;5042091;28;20194;-29
2023/04/22 09:23:50;;;;;;;2.30;1.60;;;;;;;;;;5058117;28;20235;-26
2023/04/22 09:26:19;;;;;;;1.87;1.40;;;;;;;;;;5048204;28;20261;-27
2023/04/22 09:28:50;;;;;;;2.40;1.37;;;;;;;;;;5036338;28;20208;-29
2023/04/22 09:31:19;;;;;;;1.00;1.00;;;;;;;;;;5028859;28;20187;-30
2023/04/22 09:33:51;;;;;;;1.40;1.30;;;;;;;;;;5030296;28;20242;-28
2023/04/22 09:36:22;;;;;;;2.27;1.57;;;;;;;;;;5037866;28;20200;-30
2023/04/22 09:38:53;;;;;;;2.10;1.50;;;;;;;;;;5052214;28;20211;-27
2023/04/22 09:41:27;;;;;;;2.30;1.30;;;;;;;;;;5045335;28;20197;-27
2023/04/22 09:43:55;;;;;;;2.83;1.37;;;;;;;;;;5046310;28;20218;-29
2023/04/22 09:46:24;;;;;;;2.03;1.10;;;;;;;;;;5028292;28;20233;-27
2023/04/22 09:48:52;;;;;;;1.47;1.37;;;;;;;;;;5033867;28;20205;-28
2023/04/22 09:51:19;;;;;;;1.50;1.40;;;;;;;;;;5048796;28;20224;-30
2023/04/22 09:53:57;;;;;;;6.67;1.63;;;;;;;;;;5057441;28;20218;-30
2023/04/22 09:56:39;;;;;;;2.30;1.30;;;;;;;;;;5040821;28;20204;-25
2023/04/22 09:59:07;;;;;;;1.70;1.43;;;;;;;;;;5039676;28;20197;-29
2023/04/22 10:01:39;;;;;;;1.20;1.20;;;;;;;;;;5051242;28;20213;-28
2023/04/22 10:04:06;;;;;;;1.40;1.30;;;;;;;;;;5042070;28;20229;-31
2023/04/22 10:09:03;;;;;;;1.60;1.50;;;;;;;;;;5072925;28;20220;-39
2023/04/22 10:11:31;;;;;;;1.93;1.73;;;;;;;;;;5068581;28;20213;-36
2023/04/22 10:13:59;;;;;;;1.77;1.43;;;;;;;;;;5051273;28;20222;-34
2023/04/22 10:16:28;;;;;;;2.60;1.50;;;;;;;;;;5042321;28;20195;-39
2023/04/22 10:18:57;;;;;;;1.50;1.40;;;;;;;;;;5048311;28;20244;-36
2023/04/22 10:21:25;;;;;;;2.23;1.40;;;;;;;;;;5036845;28;20191;-35
2023/04/22 10:23:52;;;;;;;1.60;1.50;;;;;;;;;;5033899;28;20226;-38
2023/04/22 10:26:38;;;;;;;1.83;1.70;;;;;;;;;;5034439;28;20226;-35
2023/04/22 10:29:06;;;;;;;1.70;1.60;;;;;;;;;;5040925;28;20259;-38
2023/04/22 10:31:33;;;;;;;3.47;1.40;;;;;;;;;;5050034;28;20250;-38
2023/04/22 10:34:11;;;;;;;1.40;1.30;;;;;;;;;;5038730;28;20225;-31
2023/04/22 10:36:53;;;;;;;1.30;1.20;;;;;;;;;;5044652;28;20194;-37
2023/04/22 10:39:22;;;;;;;1.23;1.13;;;;;;;;;;5068119;28;20287;-36
2023/04/22 10:41:53;;;;;;;2.40;1.73;;;;;;;;;;5044147;28;20198;-36
2023/04/22 10:44:21;;;;;;;1.77;1.47;;;;;;;;;;5040622;28;20214;-40
2023/04/22 10:46:58;;;;;;;2.27;1.60;;;;;;;;;;5032852;28;20230;-37
2023/04/22 10:49:27;;;;;;;1.70;1.60;;;;;;;;;;5041179;28;20251;-37
2023/04/22 10:51:57;;;;;;;2.00;1.80;;;;;;;;;;5041776;28;20195;-34
2023/04/22 10:54:43;;;;;;;1.90;1.20;;;;;;;;;;5031924;28;20253;-39
2023/04/22 10:57:11;;;;;;;1.63;1.53;;;;;;;;;;5033555;28;20266;-33
2023/04/22 10:59:42;;;;;;;2.33;1.47;;;;;;;;;;5032650;28;20260;-36
2023/04/22 11:02:09;;;;;;;1.23;1.13;;;;;;;;;;5035256;28;20202;-36
2023/04/22 11:04:38;;;;;;;1.40;1.30;;;;;;;;;;5042345;28;20222;-37
2023/04/22 11:07:15;;;;;;;1.40;1.30;;;;;;;;;;5034285;28;20231;-37
2023/04/22 11:09:45;;;;;;;1.77;1.20;;;;;;;;;;5040152;28;20288;-38
2023/04/22 11:12:31;;;;;;;1.17;1.07;;;;;;;;;;5031296;28;20187;-36
2023/04/22 11:14:59;;;;;;;2.80;1.53;;;;;;;;;;5037666;28;20214;-41
2023/04/22 11:17:26;;;;;;;2.73;1.60;;;;;;;;;;5030667;28;20202;-36
2023/04/22 11:19:56;;;;;;;1.10;1.10;;;;;;;;;;5042143;28;20297;-36
2023/04/22 11:22:24;;;;;;;1.50;1.40;;;;;;;;;;5049086;28;20194;-37
2023/04/22 11:24:55;;;;;;;5.60;1.10;;;;;;;;;;5053268;28;20218;-37
2023/04/22 11:27:25;;;;;;;4.83;1.30;;;;;;;;;;5042627;28;20221;-33
2023/04/22 11:30:02;;;;;;;2.10;1.30;;;;;;;;;;5035009;28;20221;-38
2023/04/22 11:32:30;;;;;;;1.70;1.60;;;;;;;;;;5037160;28;20207;-32
2023/04/22 11:34:58;;;;;;;6.73;1.47;;;;;;;;;;5047657;28;20246;-33
2023/04/22 11:37:26;;;;;;;1.37;1.27;;;;;;;;;;5031891;28;20195;-33
2023/04/22 11:39:53;;;;;;;1.37;1.27;;;;;;;;;;5033570;28;20289;-37
2023/04/22 11:42:22;;;;;;;1.77;1.50;;;;;;;;;;5049062;28;20292;-38
2023/04/22 11:44:49;;;;;;;1.80;1.30;;;;;;;;;;5056138;28;20233;-35
2023/04/22 11:47:16;;;;;;;1.60;1.50;;;;;;;;;;5029274;28;20281;-34
2023/04/22 11:49:55;;;;;;;1.40;1.30;;;;;;;;;;5035465;28;20213;-37
2023/04/22 11:52:23;;;;;;;1.50;1.40;;;;;;;;;;5036857;28;20186;-37
2023/04/22 11:54:51;;;;;;;3.90;1.30;;;;;;;;;;5031517;28;20223;-38
2023/04/22 11:57:20;;;;;;;2.60;1.50;;;;;;;;;;5040610;28;20546;-34
2023/04/22 11:59:58;;;;;;;2.27;1.40;;;;;;;;;;5033647;28;20215;-31
2023/04/22 12:02:25;;;;;;;2.17;1.37;;;;;;;;;;5040726;28;20190;-30
2023/04/22 12:04:52;;;;;;;2.33;1.27;;;;;;;;;;5053325;28;20222;-29
2023/04/22 12:07:19;;;;;;;1.20;1.10;;;;;;;;;;5036635;28;20218;-37
2023/04/22 12:09:49;;;;;;;1.80;1.00;;;;;;;;;;5032658;28;20193;-31
2023/04/22 12:12:16;;;;;;;1.43;1.33;;;;;;;;;;5042345;28;20486;-39
2023/04/22 12:14:45;;;;;;;1.83;1.40;;;;;;;;;;5042258;28;20229;-36
2023/04/22 12:17:13;;;;;;;2.33;1.50;;;;;;;;;;5036398;28;20195;-32
2023/04/22 12:19:40;;;;;;;1.43;1.33;;;;;;;;;;5050783;28;20209;-34
2023/04/22 12:22:07;;;;;;;1.83;1.30;;;;;;;;;;5032171;28;20199;-35
2023/04/22 12:24:39;;;;;;;1.83;1.23;;;;;;;;;;5031218;28;20229;-35
2023/04/22 12:27:07;;;;;;;1.30;1.20;;;;;;;;;;5039166;28;20258;-38
2023/04/22 12:29:34;;;;;;;1.70;1.60;;;;;;;;;;5031671;28;20286;-28
2023/04/22 12:32:02;;;;;;;1.53;1.27;;;;;;;;;;5039887;28;20202;-35
2023/04/22 12:34:29;;;;;;;1.97;1.33;;;;;;;;;;5041668;28;20223;-31
2023/04/22 12:36:56;;;;;;;2.23;1.30;;;;;;;;;;5038676;28;20199;-33
2023/04/22 12:39:24;;;;;;;1.80;1.30;;;;;;;;;;5031070;28;20206;-36
2023/04/22 12:41:51;;;;;;;3.00;1.50;;;;;;;;;;5030586;28;20208;-34
2023/04/22 12:44:19;;;;;;;2.97;1.60;;;;;;;;;;5038132;28;20216;-39
2023/04/22 12:46:46;;;;;;;1.40;1.30;;;;;;;;;;5032851;28;20310;-37
2023/04/22 12:49:14;;;;;;;1.50;1.40;;;;;;;;;;5042037;28;20202;-38
2023/04/22 12:51:41;;;;;;;3.47;1.20;;;;;;;;;;5040120;28;20200;-32
2023/04/22 12:54:09;;;;;;;2.50;1.17;;;;;;;;;;5028636;28;20219;-31
2023/04/22 12:56:36;;;;;;;1.40;1.30;;;;;;;;;;5040981;28;20200;-34
2023/04/22 12:59:03;;;;;;;2.60;1.50;;;;;;;;;;5034624;28;20206;-31
2023/04/22 13:01:32;;;;;;;1.50;1.40;;;;;;;;;;5023995;28;20206;-34
2023/04/22 13:03:59;;;;;;;2.23;1.47;;;;;;;;;;5041315;28;20230;-38
2023/04/22 13:06:27;;;;;;;2.90;1.50;;;;;;;;;;5035053;28;20570;-35
2023/04/22 13:08:55;;;;;;;2.90;1.40;;;;;;;;;;5051313;28;20214;-32
2023/04/22 13:11:23;;;;;;;3.53;1.30;;;;;;;;;;5041644;28;20205;-38
2023/04/22 13:13:50;;;;;;;1.40;1.30;;;;;;;;;;5029290;28;20218;-29
2023/04/22 13:16:17;;;;;;;1.30;1.20;;;;;;;;;;5043717;28;20226;-32
2023/04/22 13:18:46;;;;;;;1.10;1.10;;;;;;;;;;5037773;28;20211;-36
2023/04/22 13:21:14;;;;;;;1.60;1.20;;;;;;;;;;5035231;28;20199;-36
2023/04/22 13:23:42;;;;;;;2.60;1.40;;;;;;;;;;5040957;28;20226;-32
2023/04/22 13:26:09;;;;;;;2.03;1.20;;;;;;;;;;5051179;28;20245;-33
2023/04/22 13:28:36;;;;;;;1.50;1.40;;;;;;;;;;5052139;28;20205;-34
2023/04/22 13:31:03;;;;;;;2.00;1.40;;;;;;;;;;5047270;28;20298;-34
2023/04/22 13:33:30;;;;;;;1.47;1.37;;;;;;;;;;5037548;28;20219;-33
2023/04/22 13:36:11;;;;;;;3.13;1.67;;;;;;;;;;5033806;28;20197;-41
2023/04/22 13:38:39;;;;;;;3.17;1.40;;;;;;;;;;5048764;28;20214;-30
2023/04/22 13:41:06;;;;;;;1.77;1.50;;;;;;;;;;5037259;28;20195;-36
2023/04/22 13:43:34;;;;;;;3.20;1.33;;;;;;;;;;5032103;28;20231;-37
2023/04/22 13:46:01;;;;;;;1.50;1.40;;;;;;;;;;5043875;28;20208;-34
2023/04/22 13:48:29;;;;;;;2.10;1.30;;;;;;;;;;5034120;28;20307;-39
2023/04/22 13:50:56;;;;;;;2.97;1.33;;;;;;;;;;5034852;28;20199;-38
2023/04/22 13:53:24;;;;;;;2.43;1.50;;;;;;;;;;5050272;28;20219;-31
2023/04/22 13:55:52;;;;;;;1.83;1.40;;;;;;;;;;5034455;28;20200;-29
2023/04/22 13:58:19;;;;;;;1.77;1.40;;;;;;;;;;5030893;28;20649;-36
2023/04/22 14:00:46;;;;;;;1.80;1.60;;;;;;;;;;5049271;28;20286;-36
2023/04/22 14:03:13;;;;;;;3.50;1.47;;;;;;;;;;5037050;28;20211;-35
2023/04/22 14:05:40;;;;;;;4.13;2.03;;;;;;;;;;5040015;28;20199;-35
2023/04/22 14:08:07;;;;;;;2.17;1.57;;;;;;;;;;5050365;28;20226;-31
2023/04/22 14:10:36;;;;;;;2.87;1.53;;;;;;;;;;5043326;28;20200;-32
2023/04/22 14:13:03;;;;;;;2.00;1.37;;;;;;;;;;5034652;28;20243;-34
2023/04/22 14:15:30;;;;;;;3.37;1.50;;;;;;;;;;5041497;28;20211;-30
2023/04/22 14:17:57;;;;;;;1.70;1.60;;;;;;;;;;5038918;28;20195;-35
2023/04/22 14:20:25;;;;;;;2.40;1.37;;;;;;;;;;5038772;28;20202;-38
2023/04/22 14:22:52;;;;;;;1.70;1.20;;;;;;;;;;5030562;28;20225;-34
2023/04/22 14:25:19;;;;;;;1.33;1.10;;;;;;;;;;5030538;28;20282;-34
2023/04/22 14:27:47;;;;;;;4.83;1.57;;;;;;;;;;5043790;28;20221;-36
2023/04/22 14:30:16;;;;;;;1.30;1.20;;;;;;;;;;5044468;28;20195;-33
2023/04/22 14:32:43;;;;;;;2.40;1.30;;;;;;;;;;5031325;28;20218;-33
2023/04/22 14:35:10;;;;;;;5.20;2.57;;;;;;;;;;5044188;28;20202;-39
2023/04/22 14:37:39;;;;;;;4.43;2.67;;;;;;;;;;5050355;28;20203;-41
2023/04/22 14:40:07;;;;;;;1.53;1.43;;;;;;;;;;5052373;28;20346;-35
2023/04/22 14:42:35;;;;;;;4.47;3.63;;;;;;;;;;5043108;28;20277;-36
2023/04/22 14:45:03;;;;;;;4.80;2.27;;;;;;;;;;5043076;28;20222;-37
2023/04/22 14:47:31;;;;;;;2.30;1.83;;;;;;;;;;5040580;28;20285;-37
2023/04/22 14:49:58;;;;;;;3.60;1.83;;;;;;;;;;5041952;28;20206;-34
2023/04/22 14:52:25;;;;;;;3.63;1.67;;;;;;;;;;5049027;28;20237;-33
2023/04/22 14:54:52;;;;;;;1.57;1.30;;;;;;;;;;5048050;28;20246;-32
2023/04/22 14:57:19;;;;;;;2.03;1.40;;;;;;;;;;5038415;28;20226;-35
2023/04/22 14:59:46;;;;;;;1.70;1.40;;;;;;;;;;5040360;28;20213;-31
2023/04/22 15:02:16;;;;;;;2.47;1.80;;;;;;;;;;5034216;28;20277;-34
2023/04/22 15:04:43;;;;;;;3.73;1.47;;;;;;;;;;5035629;28;20233;-34
2023/04/22 15:07:10;;;;;;;3.20;1.57;;;;;;;;;;5052714;28;20218;-35
2023/04/22 15:09:37;;;;;;;1.80;1.37;;;;;;;;;;5048617;28;20206;-33
2023/04/22 15:12:05;;;;;;;2.40;1.80;;;;;;;;;;5047116;28;20207;-38
2023/04/22 15:14:34;;;;;;;2.83;1.40;;;;;;;;;;5038351;28;20218;-37
2023/04/22 15:17:01;;;;;;;1.53;1.43;;;;;;;;;;5047725;28;20198;-31
2023/04/22 15:19:29;;;;;;;3.23;1.47;;;;;;;;;;5041296;28;20203;-35
2023/04/22 15:21:57;;;;;;;1.50;1.40;;;;;;;;;;5032174;28;20202;-35
2023/04/22 15:24:24;;;;;;;1.77;1.50;;;;;;;;;;5037003;28;20293;-35
2023/04/22 15:26:51;;;;;;;2.60;2.07;;;;;;;;;;5042861;28;20285;-34
2023/04/22 15:29:19;;;;;;;4.47;1.70;;;;;;;;;;5041719;28;20225;-32
2023/04/22 15:31:46;;;;;;;3.57;1.33;;;;;;;;;;5037351;28;20206;-31
2023/04/22 15:34:14;;;;;;;1.73;1.03;;;;;;;;;;5045406;28;20294;-31
2023/04/22 15:36:43;;;;;;;1.93;1.60;;;;;;;;;;5031777;28;20270;-32
2023/04/22 15:39:10;;;;;;;2.17;1.33;;;;;;;;;;5046081;28;20198;-34
2023/04/22 15:41:37;;;;;;;3.53;1.67;;;;;;;;;;5049988;28;20241;-37
2023/04/22 15:44:05;;;;;;;1.77;1.60;;;;;;;;;;5043294;28;20214;-30
2023/04/22 15:46:32;;;;;;;3.17;1.30;;;;;;;;;;5037301;28;20202;-35
2023/04/22 15:49:00;;;;;;;2.13;1.60;;;;;;;;;;5043695;28;20225;-32
2023/04/22 15:51:31;;;;;;;1.70;1.50;;;;;;;;;;5043409;28;20191;-40
2023/04/22 15:53:59;;;;;;;2.87;1.80;;;;;;;;;;5047868;28;20225;-37
2023/04/22 15:56:28;;;;;;;3.03;1.60;;;;;;;;;;5031462;28;20229;-35
2023/04/22 15:58:55;;;;;;;1.83;1.73;;;;;;;;;;5030631;28;20482;-37
2023/04/22 16:01:22;;;;;;;3.00;1.80;;;;;;;;;;5031132;28;20205;-32
2023/04/22 16:03:49;;;;;;;4.20;2.03;;;;;;;;;;5042825;28;20228;-34
2023/04/22 16:06:17;;;;;;;6.57;1.97;;;;;;;;;;5048050;28;20210;-39
2023/04/22 16:08:45;;;;;;;1.97;1.63;;;;;;;;;;5050342;28;20222;-35
2023/04/22 16:11:14;;;;;;;1.57;1.47;;;;;;;;;;5045403;28;20220;-36
2023/04/22 16:13:41;;;;;;;3.17;1.93;;;;;;;;;;5048940;28;20222;-37
2023/04/22 16:16:08;;;;;;;2.40;1.60;;;;;;;;;;5032272;28;20201;-37
2023/04/22 16:18:36;;;;;;;2.57;1.83;;;;;;;;;;5046353;28;20190;-33
2023/04/22 16:21:04;;;;;;;1.70;1.60;;;;;;;;;;5042999;28;20202;-36
2023/04/22 16:23:33;;;;;;;2.60;1.70;;;;;;;;;;5059972;28;20230;-40
2023/04/22 16:28:32;;;;;;;2.80;1.50;;;;;;;;;;5048678;28;20246;-37
2023/04/22 16:30:59;;;;;;;2.77;1.80;;;;;;;;;;5051375;28;20206;-32
2023/04/22 16:33:26;;;;;;;2.60;2.07;;;;;;;;;;5039671;28;20280;-36
2023/04/22 16:35:53;;;;;;;3.07;2.00;;;;;;;;;;5023839;28;20209;-37
2023/04/22 16:38:20;;;;;;;4.00;2.47;;;;;;;;;;5045699;28;20206;-33
2023/04/22 16:40:47;;;;;;;2.17;1.97;;;;;;;;;;5023408;28;20216;-39
2023/04/22 16:43:15;;;;;;;3.57;2.10;;;;;;;;;;5028681;28;20289;-35
2023/04/22 16:45:43;;;;;;;2.00;1.87;;;;;;;;;;5031152;28;20198;-35
2023/04/22 16:48:11;;;;;;;2.87;2.00;;;;;;;;;;5022844;28;20218;-37
2023/04/22 16:50:38;;;;;;;2.57;1.70;;;;;;;;;;5030000;28;20211;-33
2023/04/22 16:53:07;;;;;;;1.90;1.80;;;;;;;;;;5044066;28;20228;-35
2023/04/22 16:55:34;;;;;;;3.63;1.90;;;;;;;;;;5023765;28;20210;-34
2023/04/22 16:58:02;;;;;;;2.50;1.57;;;;;;;;;;5023576;28;20305;-35
2023/04/22 17:00:30;;;;;;;3.23;2.07;;;;;;;;;;5033364;28;20225;-34
2023/04/22 17:02:59;;;;;;;3.83;2.00;;;;;;;;;;5026640;28;20209;-34
2023/04/22 17:05:26;;;;;;;2.40;1.97;;;;;;;;;;5031431;28;20226;-36
2023/04/22 17:07:53;;;;;;;2.27;1.67;;;;;;;;;;5032083;28;20214;-34
2023/04/22 17:10:20;;;;;;;3.27;2.20;;;;;;;;;;5029236;28;20203;-33